sensor_id;sensor_type;location;lat;lon;timestamp;temperature;humidity
45715;DHT22;31430;61.646;24.704;2022-10-17T00:01:28;7.20;99.90
45715;DHT22;31430;61.646;24.704;2022-10-17T00:03:54;7.20;99.90
45715;DHT22;31430;61.646;24.704;2022-10-17T00:06:20;7.20;99.90
45715;DHT22;31430;61.646;24.704;2022-10-17T00:08:45;7.20;99.90
45715;DHT22;31430;61.646;24.704;2022-10-17T00:11:17;7.10;99.90
45715;DHT22;31430;61.646;24.704;2022-10-17T00:13:45;7.10;99.90
45715;DHT22;31430;61.646;24.704;2022-10-17T00:16:11;7.10;99.90
45715;DHT22;31430;61.646;24.704;2022-10-17T00:18:37;7.00;99.90
45715;DHT22;31430;61.646;24.704;2022-10-17T00:21:03;7.00;99.90
45715;DHT22;31430;61.646;24.704;2022-10-17T00:23:28;7.00;99.90
45715;DHT22;31430;61.646;24.704;2022-10-17T00:25:59;7.00;99.90
45715;DHT22;31430;61.646;24.704;2022-10-17T00:28:25;7.00;99.90
45715;DHT22;31430;61.646;24.704;2022-10-17T00:30:57;7.00;99.90
45715;DHT22;31430;61.646;24.704;2022-10-17T00:33:24;7.00;99.90
45715;DHT22;31430;61.646;24.704;2022-10-17T00:35:49;7.00;99.90
45715;DHT22;31430;61.646;24.704;2022-10-17T00:38:15;7.00;99.90
45715;DHT22;31430;61.646;24.704;2022-10-17T00:40:40;7.00;99.90
45715;DHT22;31430;61.646;24.704;2022-10-17T00:43:16;7.00;99.90
45715;DHT22;31430;61.646;24.704;2022-10-17T00:45:42;7.00;99.90
45715;DHT22;31430;61.646;24.704;2022-10-17T00:48:10;7.00;99.90
45715;DHT22;31430;61.646;24.704;2022-10-17T00:50:38;7.00;99.90
45715;DHT22;31430;61.646;24.704;2022-10-17T00:53:07;7.00;99.90
45715;DHT22;31430;61.646;24.704;2022-10-17T00:55:37;7.00;99.90
45715;DHT22;31430;61.646;24.704;2022-10-17T00:58:07;7.00;99.90
45715;DHT22;31430;61.646;24.704;2022-10-17T01:00:32;7.00;99.90
45715;DHT22;31430;61.646;24.704;2022-10-17T01:02:58;7.00;99.90
45715;DHT22;31430;61.646;24.704;2022-10-17T01:05:24;7.00;99.90
45715;DHT22;31430;61.646;24.704;2022-10-17T01:07:51;7.00;99.90
45715;DHT22;31430;61.646;24.704;2022-10-17T01:10:17;7.00;99.90
45715;DHT22;31430;61.646;24.704;2022-10-17T01:12:58;7.00;99.90
45715;DHT22;31430;61.646;24.704;2022-10-17T01:30:14;7.00;99.90
45715;DHT22;31430;61.646;24.704;2022-10-17T01:33:04;7.10;99.90
45715;DHT22;31430;61.646;24.704;2022-10-17T01:35:41;7.10;99.90
45715;DHT22;31430;61.646;24.704;2022-10-17T01:38:22;7.10;99.90
45715;DHT22;31430;61.646;24.704;2022-10-17T01:40:57;7.20;99.90
45715;DHT22;31430;61.646;24.704;2022-10-17T01:43:33;7.20;99.90
45715;DHT22;31430;61.646;24.704;2022-10-17T01:46:08;7.20;99.90
45715;DHT22;31430;61.646;24.704;2022-10-17T01:48:36;7.20;99.90
45715;DHT22;31430;61.646;24.704;2022-10-17T01:51:10;7.20;99.90
45715;DHT22;31430;61.646;24.704;2022-10-17T01:53:41;7.30;99.90
45715;DHT22;31430;61.646;24.704;2022-10-17T01:56:13;7.30;99.90
45715;DHT22;31430;61.646;24.704;2022-10-17T01:58:43;7.30;99.90
45715;DHT22;31430;61.646;24.704;2022-10-17T02:01:11;7.30;99.90
45715;DHT22;31430;61.646;24.704;2022-10-17T02:03:39;7.30;99.90
45715;DHT22;31430;61.646;24.704;2022-10-17T02:06:07;7.30;99.90
45715;DHT22;31430;61.646;24.704;2022-10-17T02:08:42;7.30;99.90
45715;DHT22;31430;61.646;24.704;2022-10-17T02:11:20;7.30;99.90
45715;DHT22;31430;61.646;24.704;2022-10-17T02:16:53;7.40;99.90
45715;DHT22;31430;61.646;24.704;2022-10-17T02:22:29;7.40;99.90
45715;DHT22;31430;61.646;24.704;2022-10-17T02:33:20;7.50;99.90
45715;DHT22;31430;61.646;24.704;2022-10-17T02:35:51;7.50;99.90
45715;DHT22;31430;61.646;24.704;2022-10-17T02:38:18;7.50;99.90
45715;DHT22;31430;61.646;24.704;2022-10-17T02:40:45;7.50;99.90
45715;DHT22;31430;61.646;24.704;2022-10-17T02:43:12;7.50;99.90
45715;DHT22;31430;61.646;24.704;2022-10-17T02:45:39;7.50;99.90
45715;DHT22;31430;61.646;24.704;2022-10-17T02:48:16;7.50;99.90
45715;DHT22;31430;61.646;24.704;2022-10-17T02:51:15;7.50;99.90
45715;DHT22;31430;61.646;24.704;2022-10-17T02:56:44;7.60;99.90
45715;DHT22;31430;61.646;24.704;2022-10-17T02:59:13;7.60;99.90
45715;DHT22;31430;61.646;24.704;2022-10-17T03:01:40;7.60;99.90
45715;DHT22;31430;61.646;24.704;2022-10-17T03:04:08;7.60;99.90
45715;DHT22;31430;61.646;24.704;2022-10-17T03:06:34;7.60;99.90
45715;DHT22;31430;61.646;24.704;2022-10-17T03:09:00;7.60;99.90
45715;DHT22;31430;61.646;24.704;2022-10-17T03:11:26;7.60;99.90
45715;DHT22;31430;61.646;24.704;2022-10-17T03:13:51;7.60;99.90
45715;DHT22;31430;61.646;24.704;2022-10-17T03:16:17;7.60;99.90
45715;DHT22;31430;61.646;24.704;2022-10-17T03:18:43;7.60;99.90
45715;DHT22;31430;61.646;24.704;2022-10-17T03:21:08;7.60;99.90
45715;DHT22;31430;61.646;24.704;2022-10-17T03:23:34;7.60;99.90
45715;DHT22;31430;61.646;24.704;2022-10-17T03:26:04;7.60;99.90
45715;DHT22;31430;61.646;24.704;2022-10-17T03:28:30;7.50;99.90
45715;DHT22;31430;61.646;24.704;2022-10-17T03:30:56;7.60;99.90
45715;DHT22;31430;61.646;24.704;2022-10-17T03:33:21;7.60;99.90
45715;DHT22;31430;61.646;24.704;2022-10-17T03:35:47;7.60;99.90
45715;DHT22;31430;61.646;24.704;2022-10-17T03:38:12;7.60;99.90
45715;DHT22;31430;61.646;24.704;2022-10-17T03:40:38;7.60;99.90
45715;DHT22;31430;61.646;24.704;2022-10-17T03:43:04;7.60;99.90
45715;DHT22;31430;61.646;24.704;2022-10-17T03:45:29;7.60;99.90
45715;DHT22;31430;61.646;24.704;2022-10-17T03:47:57;7.50;99.90
45715;DHT22;31430;61.646;24.704;2022-10-17T03:50:22;7.60;99.90
45715;DHT22;31430;61.646;24.704;2022-10-17T03:52:48;7.60;99.90
45715;DHT22;31430;61.646;24.704;2022-10-17T03:55:14;7.60;99.90
45715;DHT22;31430;61.646;24.704;2022-10-17T03:57:40;7.60;99.90
45715;DHT22;31430;61.646;24.704;2022-10-17T04:00:07;7.60;99.90
45715;DHT22;31430;61.646;24.704;2022-10-17T04:02:32;7.60;99.90
45715;DHT22;31430;61.646;24.704;2022-10-17T04:04:59;7.70;99.90
45715;DHT22;31430;61.646;24.704;2022-10-17T04:07:25;7.70;99.90
45715;DHT22;31430;61.646;24.704;2022-10-17T04:09:51;7.70;99.90
45715;DHT22;31430;61.646;24.704;2022-10-17T04:12:16;7.70;99.90
45715;DHT22;31430;61.646;24.704;2022-10-17T04:14:42;7.70;99.90
45715;DHT22;31430;61.646;24.704;2022-10-17T04:17:08;7.70;99.90
45715;DHT22;31430;61.646;24.704;2022-10-17T04:19:34;7.70;99.90
45715;DHT22;31430;61.646;24.704;2022-10-17T04:21:59;7.70;99.90
45715;DHT22;31430;61.646;24.704;2022-10-17T04:24:25;7.80;99.90
45715;DHT22;31430;61.646;24.704;2022-10-17T04:26:51;7.80;99.90
45715;DHT22;31430;61.646;24.704;2022-10-17T04:29:17;7.80;99.90
45715;DHT22;31430;61.646;24.704;2022-10-17T04:31:43;7.80;99.90
45715;DHT22;31430;61.646;24.704;2022-10-17T04:34:08;7.90;99.90
45715;DHT22;31430;61.646;24.704;2022-10-17T04:36:34;7.90;99.90
45715;DHT22;31430;61.646;24.704;2022-10-17T04:39:00;7.90;99.90
45715;DHT22;31430;61.646;24.704;2022-10-17T04:41:27;7.90;99.90
45715;DHT22;31430;61.646;24.704;2022-10-17T04:43:53;7.90;99.90
45715;DHT22;31430;61.646;24.704;2022-10-17T04:46:19;8.00;99.90
45715;DHT22;31430;61.646;24.704;2022-10-17T04:48:45;8.00;99.90
45715;DHT22;31430;61.646;24.704;2022-10-17T04:51:13;8.00;99.90
45715;DHT22;31430;61.646;24.704;2022-10-17T04:53:40;8.00;99.90
45715;DHT22;31430;61.646;24.704;2022-10-17T04:56:14;8.00;99.90
45715;DHT22;31430;61.646;24.704;2022-10-17T04:58:41;8.00;99.90
45715;DHT22;31430;61.646;24.704;2022-10-17T05:01:09;8.00;99.90
45715;DHT22;31430;61.646;24.704;2022-10-17T05:03:35;8.10;99.90
45715;DHT22;31430;61.646;24.704;2022-10-17T05:06:09;8.10;99.90
45715;DHT22;31430;61.646;24.704;2022-10-17T05:08:35;8.10;99.90
45715;DHT22;31430;61.646;24.704;2022-10-17T05:11:01;8.10;99.90
45715;DHT22;31430;61.646;24.704;2022-10-17T05:13:27;8.00;99.90
45715;DHT22;31430;61.646;24.704;2022-10-17T05:15:53;8.10;99.90
45715;DHT22;31430;61.646;24.704;2022-10-17T05:18:22;8.10;99.90
45715;DHT22;31430;61.646;24.704;2022-10-17T05:20:47;8.10;99.90
45715;DHT22;31430;61.646;24.704;2022-10-17T05:23:13;8.10;99.90
45715;DHT22;31430;61.646;24.704;2022-10-17T05:25:39;8.10;99.90
45715;DHT22;31430;61.646;24.704;2022-10-17T05:28:04;8.10;99.90
45715;DHT22;31430;61.646;24.704;2022-10-17T05:30:30;8.10;99.90
45715;DHT22;31430;61.646;24.704;2022-10-17T05:32:55;8.10;99.90
45715;DHT22;31430;61.646;24.704;2022-10-17T05:35:21;8.00;99.90
45715;DHT22;31430;61.646;24.704;2022-10-17T05:37:47;8.00;99.90
45715;DHT22;31430;61.646;24.704;2022-10-17T05:40:13;8.00;99.90
45715;DHT22;31430;61.646;24.704;2022-10-17T05:42:38;8.10;99.90
45715;DHT22;31430;61.646;24.704;2022-10-17T05:45:04;8.10;99.90
45715;DHT22;31430;61.646;24.704;2022-10-17T05:47:30;8.10;99.90
45715;DHT22;31430;61.646;24.704;2022-10-17T05:49:56;8.10;99.90
45715;DHT22;31430;61.646;24.704;2022-10-17T05:52:21;8.10;99.90
45715;DHT22;31430;61.646;24.704;2022-10-17T05:54:47;8.10;99.90
45715;DHT22;31430;61.646;24.704;2022-10-17T05:57:13;8.10;99.90
45715;DHT22;31430;61.646;24.704;2022-10-17T05:59:38;8.10;99.90
45715;DHT22;31430;61.646;24.704;2022-10-17T06:02:04;8.20;99.90
45715;DHT22;31430;61.646;24.704;2022-10-17T06:04:30;8.20;99.90
45715;DHT22;31430;61.646;24.704;2022-10-17T06:06:55;8.20;99.90
45715;DHT22;31430;61.646;24.704;2022-10-17T06:09:22;8.20;99.90
45715;DHT22;31430;61.646;24.704;2022-10-17T06:11:48;8.20;99.90
45715;DHT22;31430;61.646;24.704;2022-10-17T06:14:14;8.20;99.90
45715;DHT22;31430;61.646;24.704;2022-10-17T06:16:39;8.10;99.90
45715;DHT22;31430;61.646;24.704;2022-10-17T06:19:05;8.10;99.90
45715;DHT22;31430;61.646;24.704;2022-10-17T06:21:31;8.20;99.90
45715;DHT22;31430;61.646;24.704;2022-10-17T06:24:01;8.10;99.90
45715;DHT22;31430;61.646;24.704;2022-10-17T06:26:26;8.00;99.90
45715;DHT22;31430;61.646;24.704;2022-10-17T06:28:53;8.00;99.90
45715;DHT22;31430;61.646;24.704;2022-10-17T06:31:19;8.00;99.90
45715;DHT22;31430;61.646;24.704;2022-10-17T06:33:44;8.00;99.90
45715;DHT22;31430;61.646;24.704;2022-10-17T06:36:12;8.00;99.90
45715;DHT22;31430;61.646;24.704;2022-10-17T06:38:38;8.00;99.90
45715;DHT22;31430;61.646;24.704;2022-10-17T06:41:08;8.10;99.90
45715;DHT22;31430;61.646;24.704;2022-10-17T06:43:36;8.10;99.90
45715;DHT22;31430;61.646;24.704;2022-10-17T06:46:02;8.20;99.90
45715;DHT22;31430;61.646;24.704;2022-10-17T06:48:28;8.10;99.90
45715;DHT22;31430;61.646;24.704;2022-10-17T06:50:58;8.00;99.90
45715;DHT22;31430;61.646;24.704;2022-10-17T06:53:29;8.00;99.90
45715;DHT22;31430;61.646;24.704;2022-10-17T06:55:55;8.00;99.90
45715;DHT22;31430;61.646;24.704;2022-10-17T06:58:26;8.00;99.90
45715;DHT22;31430;61.646;24.704;2022-10-17T07:03:25;7.90;99.90
45715;DHT22;31430;61.646;24.704;2022-10-17T07:05:52;7.80;99.90
45715;DHT22;31430;61.646;24.704;2022-10-17T07:08:18;7.60;99.90
45715;DHT22;31430;61.646;24.704;2022-10-17T07:10:43;7.50;99.90
45715;DHT22;31430;61.646;24.704;2022-10-17T07:13:09;7.40;99.90
45715;DHT22;31430;61.646;24.704;2022-10-17T07:15:36;7.30;99.90
45715;DHT22;31430;61.646;24.704;2022-10-17T07:18:02;7.20;99.90
45715;DHT22;31430;61.646;24.704;2022-10-17T07:20:27;7.20;99.90
45715;DHT22;31430;61.646;24.704;2022-10-17T07:22:53;7.20;99.90
45715;DHT22;31430;61.646;24.704;2022-10-17T07:25:19;7.30;99.90
45715;DHT22;31430;61.646;24.704;2022-10-17T07:27:44;7.30;99.90
45715;DHT22;31430;61.646;24.704;2022-10-17T07:30:11;7.40;99.90
45715;DHT22;31430;61.646;24.704;2022-10-17T07:32:37;7.50;99.90
45715;DHT22;31430;61.646;24.704;2022-10-17T07:35:02;7.80;99.90
45715;DHT22;31430;61.646;24.704;2022-10-17T07:37:28;8.00;99.90
45715;DHT22;31430;61.646;24.704;2022-10-17T07:39:54;8.00;99.90
45715;DHT22;31430;61.646;24.704;2022-10-17T07:42:21;8.10;99.90
45715;DHT22;31430;61.646;24.704;2022-10-17T07:44:47;8.10;99.90
45715;DHT22;31430;61.646;24.704;2022-10-17T07:47:12;8.00;99.90
45715;DHT22;31430;61.646;24.704;2022-10-17T07:49:38;8.10;99.90
45715;DHT22;31430;61.646;24.704;2022-10-17T07:52:12;8.00;99.90
45715;DHT22;31430;61.646;24.704;2022-10-17T07:54:37;8.00;99.90
45715;DHT22;31430;61.646;24.704;2022-10-17T07:57:03;7.80;99.90
45715;DHT22;31430;61.646;24.704;2022-10-17T07:59:29;7.70;99.90
45715;DHT22;31430;61.646;24.704;2022-10-17T08:01:55;7.80;99.90
45715;DHT22;31430;61.646;24.704;2022-10-17T08:04:21;7.90;99.90
45715;DHT22;31430;61.646;24.704;2022-10-17T08:06:48;7.90;99.90
45715;DHT22;31430;61.646;24.704;2022-10-17T08:09:14;7.90;99.90
45715;DHT22;31430;61.646;24.704;2022-10-17T08:11:40;7.90;99.90
45715;DHT22;31430;61.646;24.704;2022-10-17T08:14:08;7.80;99.90
45715;DHT22;31430;61.646;24.704;2022-10-17T08:16:35;7.80;99.90
45715;DHT22;31430;61.646;24.704;2022-10-17T08:19:01;7.80;99.90
45715;DHT22;31430;61.646;24.704;2022-10-17T08:21:27;7.80;99.90
45715;DHT22;31430;61.646;24.704;2022-10-17T08:23:53;7.80;99.90
45715;DHT22;31430;61.646;24.704;2022-10-17T08:26:18;7.80;99.90
45715;DHT22;31430;61.646;24.704;2022-10-17T08:28:44;7.90;99.90
45715;DHT22;31430;61.646;24.704;2022-10-17T08:31:16;8.00;99.90
45715;DHT22;31430;61.646;24.704;2022-10-17T08:33:44;8.00;99.90
45715;DHT22;31430;61.646;24.704;2022-10-17T08:36:12;8.00;99.90
45715;DHT22;31430;61.646;24.704;2022-10-17T08:38:38;8.10;99.90
45715;DHT22;31430;61.646;24.704;2022-10-17T08:46:44;8.20;99.90
45715;DHT22;31430;61.646;24.704;2022-10-17T08:49:22;8.30;99.90
45715;DHT22;31430;61.646;24.704;2022-10-17T08:52:01;8.40;99.90
45715;DHT22;31430;61.646;24.704;2022-10-17T08:54:32;8.40;99.90
45715;DHT22;31430;61.646;24.704;2022-10-17T08:57:00;8.50;99.90
45715;DHT22;31430;61.646;24.704;2022-10-17T08:59:28;8.50;99.90
45715;DHT22;31430;61.646;24.704;2022-10-17T09:05:54;8.50;99.90
45715;DHT22;31430;61.646;24.704;2022-10-17T09:10:44;8.40;99.90
45715;DHT22;31430;61.646;24.704;2022-10-17T09:18:59;8.60;99.90
45715;DHT22;31430;61.646;24.704;2022-10-17T09:21:45;8.40;99.90
45715;DHT22;31430;61.646;24.704;2022-10-17T09:24:18;8.40;99.90
45715;DHT22;31430;61.646;24.704;2022-10-17T09:26:46;8.40;99.90
45715;DHT22;31430;61.646;24.704;2022-10-17T09:29:20;8.30;99.90
45715;DHT22;31430;61.646;24.704;2022-10-17T09:31:59;8.30;99.90
45715;DHT22;31430;61.646;24.704;2022-10-17T09:34:28;8.30;99.90
45715;DHT22;31430;61.646;24.704;2022-10-17T09:36:54;8.30;99.90
45715;DHT22;31430;61.646;24.704;2022-10-17T09:39:23;8.40;99.90
45715;DHT22;31430;61.646;24.704;2022-10-17T09:41:53;8.40;99.90
45715;DHT22;31430;61.646;24.704;2022-10-17T09:44:33;8.40;99.90
45715;DHT22;31430;61.646;24.704;2022-10-17T09:49:45;8.60;99.90
45715;DHT22;31430;61.646;24.704;2022-10-17T09:52:21;8.70;99.90
45715;DHT22;31430;61.646;24.704;2022-10-17T09:54:58;8.90;99.90
45715;DHT22;31430;61.646;24.704;2022-10-17T09:57:25;8.80;99.90
45715;DHT22;31430;61.646;24.704;2022-10-17T10:00:04;8.90;99.90
45715;DHT22;31430;61.646;24.704;2022-10-17T10:02:30;8.90;99.90
45715;DHT22;31430;61.646;24.704;2022-10-17T10:05:13;9.00;99.90
45715;DHT22;31430;61.646;24.704;2022-10-17T10:07:41;9.20;99.90
45715;DHT22;31430;61.646;24.704;2022-10-17T10:10:23;9.30;99.90
45715;DHT22;31430;61.646;24.704;2022-10-17T10:13:22;9.50;99.90
45715;DHT22;31430;61.646;24.704;2022-10-17T10:15:50;9.60;99.90
45715;DHT22;31430;61.646;24.704;2022-10-17T10:21:13;9.60;99.90
45715;DHT22;31430;61.646;24.704;2022-10-17T10:23:41;9.60;99.90
45715;DHT22;31430;61.646;24.704;2022-10-17T10:26:23;9.60;99.90
45715;DHT22;31430;61.646;24.704;2022-10-17T10:29:01;9.60;99.90
45715;DHT22;31430;61.646;24.704;2022-10-17T10:31:35;9.50;99.90
45715;DHT22;31430;61.646;24.704;2022-10-17T10:34:23;9.50;99.90
45715;DHT22;31430;61.646;24.704;2022-10-17T10:37:15;9.50;99.90
45715;DHT22;31430;61.646;24.704;2022-10-17T10:39:48;9.60;99.90
45715;DHT22;31430;61.646;24.704;2022-10-17T10:42:35;9.60;99.90
45715;DHT22;31430;61.646;24.704;2022-10-17T10:45:22;9.70;99.90
45715;DHT22;31430;61.646;24.704;2022-10-17T10:47:53;9.70;99.90
45715;DHT22;31430;61.646;24.704;2022-10-17T10:55:49;9.60;99.90
45715;DHT22;31430;61.646;24.704;2022-10-17T11:01:15;9.50;99.90
45715;DHT22;31430;61.646;24.704;2022-10-17T11:06:44;9.30;99.90
45715;DHT22;31430;61.646;24.704;2022-10-17T11:09:35;9.30;99.90
45715;DHT22;31430;61.646;24.704;2022-10-17T11:15:02;9.10;99.90
45715;DHT22;31430;61.646;24.704;2022-10-17T11:18:00;9.10;99.90
45715;DHT22;31430;61.646;24.704;2022-10-17T11:21:04;9.10;99.90
45715;DHT22;31430;61.646;24.704;2022-10-17T11:24:04;9.10;99.90
45715;DHT22;31430;61.646;24.704;2022-10-17T11:26:34;9.10;99.90
45715;DHT22;31430;61.646;24.704;2022-10-17T11:29:03;9.20;99.90
45715;DHT22;31430;61.646;24.704;2022-10-17T11:31:37;9.20;99.90
45715;DHT22;31430;61.646;24.704;2022-10-17T11:34:09;9.20;99.90
45715;DHT22;31430;61.646;24.704;2022-10-17T11:36:39;9.30;99.90
45715;DHT22;31430;61.646;24.704;2022-10-17T11:39:25;9.30;99.90
45715;DHT22;31430;61.646;24.704;2022-10-17T11:42:24;9.30;99.90
45715;DHT22;31430;61.646;24.704;2022-10-17T11:44:51;9.30;99.90
45715;DHT22;31430;61.646;24.704;2022-10-17T11:47:43;9.40;99.90
45715;DHT22;31430;61.646;24.704;2022-10-17T11:50:35;9.40;99.90
45715;DHT22;31430;61.646;24.704;2022-10-17T11:53:17;9.50;99.90
45715;DHT22;31430;61.646;24.704;2022-10-17T11:55:45;9.50;99.90
45715;DHT22;31430;61.646;24.704;2022-10-17T12:03:45;9.40;99.90
45715;DHT22;31430;61.646;24.704;2022-10-17T12:17:00;8.90;99.90
45715;DHT22;31430;61.646;24.704;2022-10-17T12:19:36;8.90;99.90
45715;DHT22;31430;61.646;24.704;2022-10-17T12:22:03;8.80;99.90
45715;DHT22;31430;61.646;24.704;2022-10-17T12:29:47;8.70;99.90
45715;DHT22;31430;61.646;24.704;2022-10-17T12:32:13;8.60;99.90
45715;DHT22;31430;61.646;24.704;2022-10-17T12:34:39;8.60;99.90
45715;DHT22;31430;61.646;24.704;2022-10-17T12:43:00;8.70;99.90
45715;DHT22;31430;61.646;24.704;2022-10-17T12:48:09;8.70;99.90
45715;DHT22;31430;61.646;24.704;2022-10-17T12:53:22;8.60;99.90
45715;DHT22;31430;61.646;24.704;2022-10-17T12:55:58;8.60;99.90
45715;DHT22;31430;61.646;24.704;2022-10-17T12:58:24;8.70;99.90
45715;DHT22;31430;61.646;24.704;2022-10-17T13:00:55;8.70;99.90
45715;DHT22;31430;61.646;24.704;2022-10-17T13:03:26;8.80;99.90
45715;DHT22;31430;61.646;24.704;2022-10-17T13:05:55;8.90;99.90
45715;DHT22;31430;61.646;24.704;2022-10-17T13:10:56;8.60;99.90
45715;DHT22;31430;61.646;24.704;2022-10-17T13:13:43;8.60;99.90
45715;DHT22;31430;61.646;24.704;2022-10-17T13:16:30;8.60;99.90
45715;DHT22;31430;61.646;24.704;2022-10-17T13:18:57;8.40;99.90
45715;DHT22;31430;61.646;24.704;2022-10-17T13:21:23;8.40;99.90
45715;DHT22;31430;61.646;24.704;2022-10-17T13:23:49;8.30;99.90
45715;DHT22;31430;61.646;24.704;2022-10-17T13:26:26;8.30;99.90
45715;DHT22;31430;61.646;24.704;2022-10-17T13:29:13;8.20;99.90
45715;DHT22;31430;61.646;24.704;2022-10-17T13:31:43;8.20;99.90
45715;DHT22;31430;61.646;24.704;2022-10-17T13:34:19;8.20;99.90
45715;DHT22;31430;61.646;24.704;2022-10-17T13:36:47;8.20;99.90
45715;DHT22;31430;61.646;24.704;2022-10-17T13:39:17;8.20;99.90
45715;DHT22;31430;61.646;24.704;2022-10-17T13:41:44;8.20;99.90
45715;DHT22;31430;61.646;24.704;2022-10-17T13:44:24;8.20;99.90
45715;DHT22;31430;61.646;24.704;2022-10-17T13:46:51;8.10;99.90
45715;DHT22;31430;61.646;24.704;2022-10-17T13:51:53;8.20;99.90
45715;DHT22;31430;61.646;24.704;2022-10-17T13:57:00;8.00;99.90
45715;DHT22;31430;61.646;24.704;2022-10-17T13:59:40;8.00;99.90
45715;DHT22;31430;61.646;24.704;2022-10-17T14:02:22;7.90;99.90
45715;DHT22;31430;61.646;24.704;2022-10-17T14:05:03;7.90;99.90
45715;DHT22;31430;61.646;24.704;2022-10-17T14:10:20;7.70;99.90
45715;DHT22;31430;61.646;24.704;2022-10-17T14:12:47;7.70;99.90
45715;DHT22;31430;61.646;24.704;2022-10-17T14:15:14;7.60;99.90
45715;DHT22;31430;61.646;24.704;2022-10-17T14:17:41;7.50;99.90
45715;DHT22;31430;61.646;24.704;2022-10-17T14:20:17;7.50;99.90
45715;DHT22;31430;61.646;24.704;2022-10-17T14:22:43;7.40;99.90
45715;DHT22;31430;61.646;24.704;2022-10-17T14:25:28;7.40;99.90
45715;DHT22;31430;61.646;24.704;2022-10-17T14:28:12;7.40;99.90
45715;DHT22;31430;61.646;24.704;2022-10-17T14:30:41;7.30;99.90
45715;DHT22;31430;61.646;24.704;2022-10-17T14:33:14;7.30;99.90
45715;DHT22;31430;61.646;24.704;2022-10-17T14:35:49;7.20;99.90
45715;DHT22;31430;61.646;24.704;2022-10-17T14:38:16;7.10;99.90
45715;DHT22;31430;61.646;24.704;2022-10-17T14:40:49;7.00;99.90
45715;DHT22;31430;61.646;24.704;2022-10-17T14:43:20;7.00;99.90
45715;DHT22;31430;61.646;24.704;2022-10-17T14:45:46;7.00;99.90
45715;DHT22;31430;61.646;24.704;2022-10-17T14:48:16;7.00;99.90
45715;DHT22;31430;61.646;24.704;2022-10-17T14:51:15;7.10;99.90
45715;DHT22;31430;61.646;24.704;2022-10-17T14:54:27;7.00;99.90
45715;DHT22;31430;61.646;24.704;2022-10-17T14:56:38;7.10;99.90
45715;DHT22;31430;61.646;24.704;2022-10-17T14:59:05;7.10;99.90
45715;DHT22;31430;61.646;24.704;2022-10-17T15:01:32;7.00;99.90
45715;DHT22;31430;61.646;24.704;2022-10-17T15:03:58;6.90;99.90
45715;DHT22;31430;61.646;24.704;2022-10-17T15:06:33;7.00;99.90
45715;DHT22;31430;61.646;24.704;2022-10-17T15:08:59;7.00;99.90
45715;DHT22;31430;61.646;24.704;2022-10-17T15:11:24;7.00;99.90
45715;DHT22;31430;61.646;24.704;2022-10-17T15:13:50;7.00;99.90
45715;DHT22;31430;61.646;24.704;2022-10-17T15:16:23;7.00;99.90
45715;DHT22;31430;61.646;24.704;2022-10-17T15:18:49;6.90;99.90
45715;DHT22;31430;61.646;24.704;2022-10-17T15:21:17;6.90;99.90
45715;DHT22;31430;61.646;24.704;2022-10-17T15:23:43;6.90;99.90
45715;DHT22;31430;61.646;24.704;2022-10-17T15:26:13;6.80;99.90
45715;DHT22;31430;61.646;24.704;2022-10-17T15:28:39;6.70;99.90
45715;DHT22;31430;61.646;24.704;2022-10-17T15:31:05;6.50;99.90
45715;DHT22;31430;61.646;24.704;2022-10-17T15:33:31;6.50;99.90
45715;DHT22;31430;61.646;24.704;2022-10-17T15:35:56;6.40;99.90
45715;DHT22;31430;61.646;24.704;2022-10-17T15:38:22;6.30;99.90
45715;DHT22;31430;61.646;24.704;2022-10-17T15:40:47;6.30;99.90
45715;DHT22;31430;61.646;24.704;2022-10-17T15:43:17;6.20;99.90
45715;DHT22;31430;61.646;24.704;2022-10-17T15:45:43;6.20;99.90
45715;DHT22;31430;61.646;24.704;2022-10-17T15:48:17;6.20;99.90
45715;DHT22;31430;61.646;24.704;2022-10-17T15:50:44;6.10;99.90
45715;DHT22;31430;61.646;24.704;2022-10-17T15:53:13;6.00;99.90
45715;DHT22;31430;61.646;24.704;2022-10-17T15:55:39;6.10;99.90
45715;DHT22;31430;61.646;24.704;2022-10-17T15:58:05;6.00;99.90
45715;DHT22;31430;61.646;24.704;2022-10-17T16:00:31;6.00;99.90
45715;DHT22;31430;61.646;24.704;2022-10-17T16:02:56;5.90;99.90
45715;DHT22;31430;61.646;24.704;2022-10-17T16:05:24;5.90;99.90
45715;DHT22;31430;61.646;24.704;2022-10-17T16:07:51;5.90;99.90
45715;DHT22;31430;61.646;24.704;2022-10-17T16:10:18;5.90;99.90
45715;DHT22;31430;61.646;24.704;2022-10-17T16:12:45;5.80;99.90
45715;DHT22;31430;61.646;24.704;2022-10-17T16:15:19;5.90;99.90
45715;DHT22;31430;61.646;24.704;2022-10-17T16:17:47;5.80;99.90
45715;DHT22;31430;61.646;24.704;2022-10-17T16:20:13;5.80;99.90
45715;DHT22;31430;61.646;24.704;2022-10-17T16:22:41;5.80;99.90
45715;DHT22;31430;61.646;24.704;2022-10-17T16:27:45;5.70;99.90
45715;DHT22;31430;61.646;24.704;2022-10-17T16:30:12;5.70;99.90
45715;DHT22;31430;61.646;24.704;2022-10-17T16:32:37;5.70;99.90
45715;DHT22;31430;61.646;24.704;2022-10-17T16:35:04;5.70;99.90
45715;DHT22;31430;61.646;24.704;2022-10-17T16:37:30;5.70;99.90
45715;DHT22;31430;61.646;24.704;2022-10-17T16:39:55;5.70;99.90
45715;DHT22;31430;61.646;24.704;2022-10-17T16:42:22;5.70;99.90
45715;DHT22;31430;61.646;24.704;2022-10-17T16:44:48;5.70;99.90
45715;DHT22;31430;61.646;24.704;2022-10-17T16:47:15;5.80;99.90
45715;DHT22;31430;61.646;24.704;2022-10-17T16:49:41;5.70;99.90
45715;DHT22;31430;61.646;24.704;2022-10-17T16:52:07;5.80;99.90
45715;DHT22;31430;61.646;24.704;2022-10-17T16:54:33;5.80;99.90
45715;DHT22;31430;61.646;24.704;2022-10-17T16:56:59;5.80;99.90
45715;DHT22;31430;61.646;24.704;2022-10-17T16:59:25;5.70;99.90
45715;DHT22;31430;61.646;24.704;2022-10-17T17:01:51;5.80;99.90
45715;DHT22;31430;61.646;24.704;2022-10-17T17:04:17;5.70;99.90
45715;DHT22;31430;61.646;24.704;2022-10-17T17:06:42;5.70;99.90
45715;DHT22;31430;61.646;24.704;2022-10-17T17:09:08;5.70;99.90
45715;DHT22;31430;61.646;24.704;2022-10-17T17:11:35;5.80;99.90
45715;DHT22;31430;61.646;24.704;2022-10-17T17:14:02;5.80;99.90
45715;DHT22;31430;61.646;24.704;2022-10-17T17:16:30;5.80;99.90
45715;DHT22;31430;61.646;24.704;2022-10-17T17:19:04;5.90;99.90
45715;DHT22;31430;61.646;24.704;2022-10-17T17:21:31;5.90;99.90
45715;DHT22;31430;61.646;24.704;2022-10-17T17:23:58;5.90;99.90
45715;DHT22;31430;61.646;24.704;2022-10-17T17:26:26;5.90;99.90
45715;DHT22;31430;61.646;24.704;2022-10-17T17:28:53;5.90;99.90
45715;DHT22;31430;61.646;24.704;2022-10-17T17:31:21;6.00;99.90
45715;DHT22;31430;61.646;24.704;2022-10-17T17:33:48;6.00;99.90
45715;DHT22;31430;61.646;24.704;2022-10-17T17:36:17;6.00;99.90
45715;DHT22;31430;61.646;24.704;2022-10-17T17:38:44;6.00;99.90
45715;DHT22;31430;61.646;24.704;2022-10-17T17:41:15;6.00;99.90
45715;DHT22;31430;61.646;24.704;2022-10-17T17:43:41;6.00;99.90